Metz, MO (64765)

9:50 PM CDT on June 02, 2015 (GMT -0500)
Nevada | | Change Station
CLOSE
Current Station
Personal Weather Station
Location: Nevada, MO
Elevation: 863 ft
Nearby Weather Stations
Active Advisory: Flood Warning

Elev 863 ft 37.82 °N, 94.33 °W | Updated 29 seconds ago

Partly Cloudy
Partly Cloudy
69.4 °F
Feels Like 69.4 °F
N
2.7
Wind Variable Wind from East
Gusts 3.8 mph

Today
High -- | Low -- °F
--% Chance of Precip.
Yesterday
High -- | Low -- °F
Precip. -- in
5:56 AM 8:35 PM
Full, 100% visible
Pressure 29.94 in
Visibility 10.0 miles
Clouds Clear
Dew Point 64 °F
Humidity 83%
Rainfall 0.00 in
Snow Depth Not available.
UV 0 out of 12
Pollen 7.70 out of 12
Air Quality Not available.
Flu Activity Sporadic
METAR KPTS 030215Z AUTO 13005KT 10SM CLR 25/21 A2994 RMK AO2 T02450209

More Conditions Fewer Conditions

Pressure 29.94 in
Visibility 10.0 miles
Clouds Clear
Dew Point 64 °F
Humidity 83%
Rainfall 0.00 in
Snow Depth Not available.
UV 0 out of 12
Pollen 7.70 out of 12
Air Quality Not available.
Flu Activity Sporadic
METAR KPTS 030215Z AUTO 13005KT 10SM CLR 25/21 A2994 RMK AO2 T02450209

More Conditions Fewer Conditions

10-Day Weather Forecast

×

Almanac

Astronomy

Jun. 02, 2015 Rise Set
Actual Time
Civil Twilight
Nautical Twilight
Astronomical Twilight
Moon
Length of Visible Light
Length of Day
Tomorrow will be .
, % of the Moon is Illuminated

Today's Extremes

State Highs State Lows

Community

WunderPhotos

Upload Photos

1,826,126 photos uploaded!

WunderBlogs® & News

Nearby

Air Quality

  Air Quality AQ Index Pollutant
Not available.

Snow Depth

Station Depth Elevation

Earthquake Activity

City Distance Mag. Time & Date
Minimum magnitude displayed is 2.5.

Coastal Water Temperatures

Place Temperature

Stations

Nearby Weather Stations

Station Location Temp. Windchill Dew Point Humidity Wind Precip. Elev Updated Type
                   
Flood Warning
Statement as of 8:37 PM CDT on June 02, 2015

... For the the Osage river near Schell City...
* at 7:45 PM Tuesday the stage was 32.6 feet.
* Flood stage is 30.0 feet.
* Minor flooding is occurring and minor flooding is forecast.
* Forecast... the river will continue to fall to below flood stage by
tomorrow afternoon.
* Impact... at 33.0 feet... flood waters impact b Highway 2.5 miles east
of Rich Hill in the vicinity of the Bates County drainage ditch.



               Flood observed forecast 7 am

Location stage stage day time Wed Thu Fri

Osage river basin
Schell City 30 32.6 Tue 08 PM 24.9 19.8 19.1




Lat... Lon 3803 9416 3799 9406 3806 9406 3807 9415




Frye